WZZ63KR EDDK-EPWR
Flight info
| Callsign | WZZ63KR |
|---|---|
| Flight time | 1h 6m |
| Altitude | 33000 |
| Route | PODIP1R PODIP Y867 PELUN/N0427F370 DCT ANZIV DCT WRB DCT NOMKA DCT BEBKU DCT LASIS Z419 VAGNI |
| Aircraft | A320/M-SDE3FGHIRWY/LB1 |
Departure
| Time | 2026-04-24 11:29 |
|---|---|
| Airport | Cologne Bonn Airport (EDDK) |
Arrival
| Time | 2026-04-24 12:36 |
|---|---|
| Airport | Copernicus Wrocław Airport (EPWR) |
| Time | Latitude | Longitude | Altitude | Speed | Heading |
|---|---|---|---|---|---|
| 2026-04-24 10:56 | 50.87835 | 7.12417 | 234 ft | 0 kts | 285° |
| 2026-04-24 10:58 | 50.87834 | 7.12454 | 234 ft | 0 kts | 288° |
| 2026-04-24 11:17 | 50.87832 | 7.12465 | 234 ft | 4 kts | 288° |
| 2026-04-24 11:17 | 50.87824 | 7.12505 | 234 ft | 4 kts | 293° |
| 2026-04-24 11:17 | 50.87811 | 7.12541 | 235 ft | 4 kts | 314° |
| 2026-04-24 11:17 | 50.87791 | 7.12561 | 236 ft | 4 kts | 9° |
| 2026-04-24 11:18 | 50.87781 | 7.12558 | 236 ft | 0 kts | 18° |
| 2026-04-24 11:20 | 50.87784 | 7.12562 | 237 ft | 1 kts | 37° |
| 2026-04-24 11:21 | 50.87784 | 7.12578 | 234 ft | 2 kts | 96° |
| 2026-04-24 11:21 | 50.87780 | 7.12634 | 232 ft | 7 kts | 96° |
| 2026-04-24 11:21 | 50.87758 | 7.12715 | 232 ft | 10 kts | 131° |
| 2026-04-24 11:21 | 50.87702 | 7.12796 | 232 ft | 12 kts | 137° |
| 2026-04-24 11:22 | 50.87633 | 7.12895 | 232 ft | 15 kts | 137° |
| 2026-04-24 11:22 | 50.87551 | 7.13015 | 232 ft | 17 kts | 137° |
| 2026-04-24 11:22 | 50.87455 | 7.13154 | 232 ft | 18 kts | 137° |
| 2026-04-24 11:22 | 50.87371 | 7.13275 | 232 ft | 18 kts | 137° |
| 2026-04-24 11:23 | 50.87272 | 7.13416 | 233 ft | 20 kts | 138° |
| 2026-04-24 11:23 | 50.87168 | 7.13568 | 237 ft | 21 kts | 137° |
| 2026-04-24 11:23 | 50.87060 | 7.13725 | 241 ft | 21 kts | 137° |
| 2026-04-24 11:23 | 50.86971 | 7.13853 | 245 ft | 6 kts | 138° |
| 2026-04-24 11:24 | 50.86944 | 7.13892 | 248 ft | 4 kts | 137° |
| 2026-04-24 11:24 | 50.86926 | 7.13918 | 250 ft | 5 kts | 137° |
| 2026-04-24 11:24 | 50.86888 | 7.13974 | 253 ft | 10 kts | 137° |
| 2026-04-24 11:24 | 50.86818 | 7.14074 | 255 ft | 18 kts | 137° |
| 2026-04-24 11:25 | 50.86708 | 7.14181 | 258 ft | 18 kts | 138° |
| 2026-04-24 11:25 | 50.86615 | 7.14315 | 261 ft | 19 kts | 136° |
| 2026-04-24 11:25 | 50.86514 | 7.14459 | 265 ft | 20 kts | 138° |
| 2026-04-24 11:25 | 50.86399 | 7.14621 | 272 ft | 24 kts | 138° |
| 2026-04-24 11:26 | 50.86272 | 7.14799 | 279 ft | 24 kts | 138° |
| 2026-04-24 11:26 | 50.86151 | 7.14983 | 286 ft | 24 kts | 136° |
| 2026-04-24 11:26 | 50.86025 | 7.15165 | 293 ft | 25 kts | 138° |
| 2026-04-24 11:26 | 50.85895 | 7.15352 | 296 ft | 26 kts | 137° |
| 2026-04-24 11:27 | 50.85760 | 7.15547 | 299 ft | 27 kts | 137° |
| 2026-04-24 11:27 | 50.85624 | 7.15745 | 304 ft | 27 kts | 137° |
| 2026-04-24 11:27 | 50.85497 | 7.15927 | 308 ft | 13 kts | 136° |
| 2026-04-24 11:27 | 50.85494 | 7.16020 | 309 ft | 10 kts | 60° |
| 2026-04-24 11:28 | 50.85548 | 7.16112 | 308 ft | 13 kts | 47° |
| 2026-04-24 11:28 | 50.85614 | 7.16227 | 309 ft | 15 kts | 47° |
| 2026-04-24 11:28 | 50.85691 | 7.16311 | 308 ft | 14 kts | 353° |
| 2026-04-24 11:28 | 50.85780 | 7.16195 | 306 ft | 29 kts | 317° |
| 2026-04-24 11:29 | 50.86146 | 7.15663 | 294 ft | 110 kts | 317° |
| 2026-04-24 11:29 | 50.86841 | 7.14619 | 454 ft | 152 kts | 316° |
| 2026-04-24 11:29 | 50.87600 | 7.13501 | 1293 ft | 148 kts | 318° |
| 2026-04-24 11:29 | 50.88384 | 7.12373 | 2018 ft | 159 kts | 318° |
| 2026-04-24 11:30 | 50.89334 | 7.11295 | 2378 ft | 180 kts | 343° |
| 2026-04-24 11:30 | 50.90645 | 7.11417 | 2725 ft | 204 kts | 24° |
| 2026-04-24 11:30 | 50.91911 | 7.12493 | 3536 ft | 208 kts | 27° |
| 2026-04-24 11:30 | 50.93149 | 7.13688 | 4421 ft | 211 kts | 40° |
| 2026-04-24 11:31 | 50.94050 | 7.15618 | 5051 ft | 233 kts | 66° |
| 2026-04-24 11:31 | 50.94293 | 7.18271 | 5529 ft | 260 kts | 86° |
| 2026-04-24 11:31 | 50.94308 | 7.21205 | 6340 ft | 270 kts | 87° |
| 2026-04-24 11:31 | 50.94304 | 7.24213 | 7269 ft | 275 kts | 88° |
| 2026-04-24 11:32 | 50.94296 | 7.27278 | 8213 ft | 279 kts | 88° |
| 2026-04-24 11:32 | 50.94587 | 7.30306 | 9110 ft | 280 kts | 67° |
| 2026-04-24 11:32 | 50.95444 | 7.33099 | 10037 ft | 283 kts | 60° |
| 2026-04-24 11:32 | 50.96357 | 7.35921 | 10700 ft | 296 kts | 61° |
| 2026-04-24 11:33 | 50.97331 | 7.38938 | 11030 ft | 318 kts | 61° |
| 2026-04-24 11:33 | 50.98352 | 7.42120 | 11666 ft | 326 kts | 61° |
| 2026-04-24 11:33 | 50.99373 | 7.45317 | 12426 ft | 331 kts | 61° |
| 2026-04-24 11:33 | 51.00420 | 7.48606 | 13198 ft | 336 kts | 61° |
| 2026-04-24 11:34 | 51.01480 | 7.51940 | 13946 ft | 341 kts | 61° |
| 2026-04-24 11:34 | 51.02557 | 7.55323 | 14621 ft | 345 kts | 61° |
| 2026-04-24 11:34 | 51.03649 | 7.58755 | 15321 ft | 349 kts | 61° |
| 2026-04-24 11:34 | 51.04748 | 7.62226 | 15983 ft | 353 kts | 62° |
| 2026-04-24 11:35 | 51.05858 | 7.65728 | 16632 ft | 357 kts | 61° |
| 2026-04-24 11:35 | 51.06978 | 7.69272 | 17290 ft | 361 kts | 62° |
| 2026-04-24 11:35 | 51.08114 | 7.72866 | 17971 ft | 365 kts | 62° |
| 2026-04-24 11:35 | 51.09257 | 7.76494 | 18629 ft | 369 kts | 62° |
| 2026-04-24 11:36 | 51.10412 | 7.80168 | 19221 ft | 373 kts | 62° |
| 2026-04-24 11:36 | 51.11581 | 7.83881 | 19823 ft | 377 kts | 62° |
| 2026-04-24 11:36 | 51.12763 | 7.87623 | 20441 ft | 381 kts | 62° |
| 2026-04-24 11:36 | 51.13959 | 7.91406 | 21088 ft | 384 kts | 62° |
| 2026-04-24 11:37 | 51.15155 | 7.95232 | 21670 ft | 388 kts | 64° |
| 2026-04-24 11:37 | 51.15948 | 7.99356 | 22175 ft | 393 kts | 81° |
| 2026-04-24 11:37 | 51.16255 | 8.03710 | 22697 ft | 397 kts | 83° |
| 2026-04-24 11:37 | 51.16540 | 8.08100 | 23237 ft | 400 kts | 84° |
| 2026-04-24 11:38 | 51.16819 | 8.12537 | 23805 ft | 404 kts | 84° |
| 2026-04-24 11:38 | 51.17097 | 8.17009 | 24255 ft | 407 kts | 84° |
| 2026-04-24 11:38 | 51.17377 | 8.21512 | 24732 ft | 409 kts | 84° |
| 2026-04-24 11:38 | 51.17662 | 8.26042 | 25193 ft | 412 kts | 84° |
| 2026-04-24 11:39 | 51.17949 | 8.30594 | 25676 ft | 414 kts | 84° |
| 2026-04-24 11:39 | 51.18238 | 8.35167 | 26137 ft | 417 kts | 83° |
| 2026-04-24 11:39 | 51.18528 | 8.39775 | 26613 ft | 419 kts | 84° |
| 2026-04-24 11:39 | 51.18818 | 8.44421 | 27074 ft | 422 kts | 84° |
| 2026-04-24 11:40 | 51.19106 | 8.49078 | 27535 ft | 424 kts | 84° |
| 2026-04-24 11:40 | 51.19393 | 8.53757 | 27970 ft | 427 kts | 84° |
| 2026-04-24 11:40 | 51.19679 | 8.58491 | 28403 ft | 429 kts | 84° |
| 2026-04-24 11:40 | 51.19959 | 8.63175 | 28832 ft | 431 kts | 84° |
| 2026-04-24 11:41 | 51.20243 | 8.67949 | 29258 ft | 434 kts | 84° |
| 2026-04-24 11:41 | 51.20527 | 8.72748 | 29671 ft | 437 kts | 84° |
| 2026-04-24 11:41 | 51.20811 | 8.77587 | 30118 ft | 439 kts | 84° |
| 2026-04-24 11:41 | 51.21094 | 8.82438 | 30505 ft | 442 kts | 84° |
| 2026-04-24 11:42 | 51.21378 | 8.87342 | 30862 ft | 444 kts | 84° |
| 2026-04-24 11:42 | 51.21663 | 8.92264 | 31180 ft | 448 kts | 84° |
| 2026-04-24 11:42 | 51.21952 | 8.97236 | 31500 ft | 450 kts | 84° |
| 2026-04-24 11:42 | 51.22238 | 9.02219 | 31834 ft | 453 kts | 84° |
| 2026-04-24 11:43 | 51.22522 | 9.07222 | 32288 ft | 453 kts | 85° |
| 2026-04-24 11:43 | 51.22798 | 9.12231 | 32735 ft | 453 kts | 85° |
| 2026-04-24 11:43 | 51.23070 | 9.17225 | 33132 ft | 454 kts | 85° |
| 2026-04-24 11:43 | 51.23343 | 9.22229 | 33233 ft | 449 kts | 84° |
| 2026-04-24 11:44 | 51.23609 | 9.27136 | 33248 ft | 438 kts | 85° |
| 2026-04-24 11:44 | 51.23866 | 9.31899 | 33240 ft | 436 kts | 84° |
| 2026-04-24 11:44 | 51.24384 | 9.41516 | 33244 ft | 434 kts | 84° |
| 2026-04-24 11:45 | 51.24893 | 9.51121 | 33243 ft | 435 kts | 84° |
| 2026-04-24 11:45 | 51.25396 | 9.60733 | 33235 ft | 434 kts | 84° |
| 2026-04-24 11:46 | 51.25888 | 9.70343 | 33237 ft | 434 kts | 84° |
| 2026-04-24 11:46 | 51.26369 | 9.79965 | 33234 ft | 435 kts | 84° |
| 2026-04-24 11:47 | 51.26857 | 9.89780 | 33227 ft | 455 kts | 84° |
| 2026-04-24 11:47 | 51.27357 | 10.00027 | 33223 ft | 467 kts | 84° |
| 2026-04-24 11:48 | 51.27850 | 10.10320 | 33219 ft | 468 kts | 84° |
| 2026-04-24 11:48 | 51.28333 | 10.20696 | 33214 ft | 469 kts | 84° |
| 2026-04-24 11:49 | 51.28805 | 10.31094 | 33213 ft | 469 kts | 84° |
| 2026-04-24 11:49 | 51.29270 | 10.41493 | 33207 ft | 469 kts | 84° |
| 2026-04-24 11:50 | 51.29732 | 10.51898 | 33203 ft | 469 kts | 84° |
| 2026-04-24 11:50 | 51.30189 | 10.62303 | 33194 ft | 470 kts | 84° |
| 2026-04-24 11:51 | 51.30630 | 10.72715 | 33192 ft | 470 kts | 84° |
| 2026-04-24 11:51 | 51.31054 | 10.83136 | 33188 ft | 470 kts | 85° |
| 2026-04-24 11:52 | 51.31472 | 10.93514 | 33188 ft | 470 kts | 84° |
| 2026-04-24 11:52 | 51.31893 | 11.03942 | 33186 ft | 470 kts | 84° |
| 2026-04-24 11:53 | 51.32304 | 11.14377 | 33182 ft | 471 kts | 84° |
| 2026-04-24 11:53 | 51.32696 | 11.24834 | 33182 ft | 471 kts | 84° |
| 2026-04-24 11:54 | 51.33081 | 11.35295 | 33181 ft | 472 kts | 84° |
| 2026-04-24 11:54 | 51.33461 | 11.45795 | 33187 ft | 473 kts | 85° |
| 2026-04-24 11:55 | 51.33829 | 11.56287 | 33187 ft | 473 kts | 85° |
| 2026-04-24 11:55 | 51.34186 | 11.66798 | 33186 ft | 474 kts | 85° |
| 2026-04-24 11:56 | 51.34535 | 11.77255 | 33188 ft | 474 kts | 84° |
| 2026-04-24 11:56 | 51.34883 | 11.87796 | 33190 ft | 475 kts | 85° |
| 2026-04-24 11:57 | 51.35216 | 11.98351 | 33187 ft | 475 kts | 85° |
| 2026-04-24 11:57 | 51.35540 | 12.08919 | 33188 ft | 475 kts | 85° |
| 2026-04-24 11:58 | 51.35855 | 12.19498 | 33183 ft | 476 kts | 85° |
| 2026-04-24 11:58 | 51.36157 | 12.30086 | 33184 ft | 476 kts | 84° |
| 2026-04-24 11:59 | 51.36407 | 12.38874 | 33180 ft | 477 kts | 85° |
| 2026-04-24 11:59 | 51.36697 | 12.49489 | 33184 ft | 477 kts | 85° |
| 2026-04-24 12:00 | 51.36978 | 12.60106 | 33178 ft | 478 kts | 85° |
| 2026-04-24 12:00 | 51.37247 | 12.70725 | 33176 ft | 479 kts | 85° |
| 2026-04-24 12:01 | 51.37509 | 12.81388 | 33172 ft | 479 kts | 85° |
| 2026-04-24 12:01 | 51.37757 | 12.92058 | 33177 ft | 480 kts | 85° |
| 2026-04-24 12:02 | 51.38000 | 13.02737 | 33179 ft | 480 kts | 85° |
| 2026-04-24 12:02 | 51.38235 | 13.13413 | 33178 ft | 480 kts | 85° |
| 2026-04-24 12:03 | 51.38455 | 13.24023 | 33180 ft | 480 kts | 85° |
| 2026-04-24 12:03 | 51.38666 | 13.34703 | 33160 ft | 480 kts | 85° |
| 2026-04-24 12:04 | 51.38870 | 13.45400 | 33165 ft | 480 kts | 85° |
| 2026-04-24 12:04 | 51.39067 | 13.56078 | 33176 ft | 480 kts | 85° |
| 2026-04-24 12:05 | 51.39250 | 13.66758 | 33172 ft | 480 kts | 85° |
| 2026-04-24 12:05 | 51.39423 | 13.77436 | 33175 ft | 479 kts | 85° |
| 2026-04-24 12:06 | 51.39583 | 13.88110 | 33174 ft | 479 kts | 85° |
| 2026-04-24 12:06 | 51.39739 | 13.98721 | 33172 ft | 479 kts | 85° |
| 2026-04-24 12:07 | 51.39884 | 14.09397 | 33167 ft | 479 kts | 85° |
| 2026-04-24 12:07 | 51.40017 | 14.20065 | 33160 ft | 479 kts | 85° |
| 2026-04-24 12:08 | 51.40144 | 14.30728 | 33162 ft | 479 kts | 85° |
| 2026-04-24 12:08 | 51.40257 | 14.41387 | 33159 ft | 479 kts | 85° |
| 2026-04-24 12:09 | 51.40366 | 14.52050 | 33157 ft | 478 kts | 85° |
| 2026-04-24 12:09 | 51.40468 | 14.62717 | 33159 ft | 478 kts | 85° |
| 2026-04-24 12:10 | 51.40550 | 14.73302 | 33153 ft | 478 kts | 85° |
| 2026-04-24 12:11 | 51.40653 | 14.89281 | 33153 ft | 478 kts | 85° |
| 2026-04-24 12:11 | 51.40100 | 14.99949 | 33063 ft | 487 kts | 100° |
| 2026-04-24 12:11 | 51.39284 | 15.05193 | 32807 ft | 484 kts | 101° |
| 2026-04-24 12:12 | 51.38448 | 15.10402 | 32674 ft | 484 kts | 101° |
| 2026-04-24 12:12 | 51.37595 | 15.15621 | 32158 ft | 482 kts | 101° |
| 2026-04-24 12:12 | 51.36743 | 15.20782 | 31664 ft | 477 kts | 102° |
| 2026-04-24 12:12 | 51.35898 | 15.25900 | 31178 ft | 473 kts | 102° |
| 2026-04-24 12:13 | 51.35066 | 15.30972 | 30695 ft | 469 kts | 101° |
| 2026-04-24 12:13 | 51.34248 | 15.36002 | 30243 ft | 465 kts | 101° |
| 2026-04-24 12:13 | 51.33439 | 15.40991 | 29728 ft | 461 kts | 101° |
| 2026-04-24 12:13 | 51.32635 | 15.45931 | 29299 ft | 458 kts | 102° |
| 2026-04-24 12:14 | 51.31831 | 15.50838 | 28858 ft | 455 kts | 102° |
| 2026-04-24 12:14 | 51.31029 | 15.55702 | 28422 ft | 451 kts | 102° |
| 2026-04-24 12:14 | 51.30227 | 15.60538 | 28001 ft | 448 kts | 102° |
| 2026-04-24 12:14 | 51.29428 | 15.65332 | 27560 ft | 445 kts | 102° |
| 2026-04-24 12:15 | 51.28633 | 15.70084 | 27118 ft | 441 kts | 102° |
| 2026-04-24 12:15 | 51.27840 | 15.74813 | 26675 ft | 438 kts | 102° |
| 2026-04-24 12:15 | 51.27067 | 15.79431 | 26229 ft | 435 kts | 102° |
| 2026-04-24 12:15 | 51.26289 | 15.84074 | 25775 ft | 431 kts | 102° |
| 2026-04-24 12:16 | 51.25515 | 15.88682 | 25302 ft | 428 kts | 102° |
| 2026-04-24 12:16 | 51.24747 | 15.93242 | 24839 ft | 425 kts | 102° |
| 2026-04-24 12:16 | 51.23971 | 15.97780 | 24367 ft | 422 kts | 105° |
| 2026-04-24 12:16 | 51.22919 | 16.02144 | 23909 ft | 420 kts | 110° |
| 2026-04-24 12:17 | 51.21806 | 16.06443 | 23388 ft | 418 kts | 110° |
| 2026-04-24 12:17 | 51.20701 | 16.10704 | 22921 ft | 414 kts | 110° |
| 2026-04-24 12:17 | 51.19605 | 16.14917 | 22459 ft | 410 kts | 110° |
| 2026-04-24 12:17 | 51.18515 | 16.19093 | 21995 ft | 405 kts | 110° |
| 2026-04-24 12:18 | 51.17440 | 16.23216 | 21539 ft | 401 kts | 110° |
| 2026-04-24 12:18 | 51.16374 | 16.27311 | 21093 ft | 397 kts | 110° |
| 2026-04-24 12:18 | 51.15322 | 16.31348 | 20644 ft | 393 kts | 110° |
| 2026-04-24 12:18 | 51.14277 | 16.35344 | 20187 ft | 389 kts | 110° |
| 2026-04-24 12:19 | 51.13239 | 16.39311 | 19757 ft | 386 kts | 110° |
| 2026-04-24 12:19 | 51.12210 | 16.43229 | 19314 ft | 383 kts | 110° |
| 2026-04-24 12:19 | 51.11184 | 16.47123 | 18881 ft | 380 kts | 110° |
| 2026-04-24 12:19 | 51.10164 | 16.50986 | 18446 ft | 377 kts | 110° |
| 2026-04-24 12:20 | 51.09152 | 16.54816 | 17979 ft | 374 kts | 110° |
| 2026-04-24 12:20 | 51.08191 | 16.58641 | 17553 ft | 370 kts | 108° |
| 2026-04-24 12:20 | 51.07323 | 16.62458 | 17129 ft | 365 kts | 106° |
| 2026-04-24 12:20 | 51.06511 | 16.66256 | 16711 ft | 361 kts | 105° |
| 2026-04-24 12:21 | 51.05699 | 16.69963 | 16297 ft | 359 kts | 110° |
| 2026-04-24 12:21 | 51.04657 | 16.73571 | 15903 ft | 357 kts | 112° |
| 2026-04-24 12:21 | 51.03595 | 16.77118 | 15499 ft | 355 kts | 113° |
| 2026-04-24 12:21 | 51.02526 | 16.80634 | 15100 ft | 352 kts | 113° |
| 2026-04-24 12:22 | 51.01456 | 16.84125 | 14701 ft | 350 kts | 113° |
| 2026-04-24 12:22 | 51.00390 | 16.87595 | 14301 ft | 349 kts | 113° |
| 2026-04-24 12:22 | 50.99329 | 16.91044 | 13909 ft | 347 kts | 113° |
| 2026-04-24 12:22 | 50.98270 | 16.94486 | 13475 ft | 346 kts | 113° |
| 2026-04-24 12:23 | 50.97222 | 16.97895 | 13079 ft | 343 kts | 113° |
| 2026-04-24 12:23 | 50.96177 | 17.01286 | 12685 ft | 340 kts | 113° |
| 2026-04-24 12:23 | 50.95139 | 17.04641 | 12299 ft | 338 kts | 114° |
| 2026-04-24 12:23 | 50.94102 | 17.07982 | 11893 ft | 336 kts | 114° |
| 2026-04-24 12:24 | 50.93069 | 17.11302 | 11514 ft | 335 kts | 114° |
| 2026-04-24 12:24 | 50.92043 | 17.14606 | 11138 ft | 333 kts | 114° |
| 2026-04-24 12:24 | 50.91024 | 17.17885 | 10745 ft | 329 kts | 114° |
| 2026-04-24 12:24 | 50.90027 | 17.21092 | 10374 ft | 321 kts | 114° |
| 2026-04-24 12:25 | 50.89051 | 17.24231 | 10006 ft | 314 kts | 114° |
| 2026-04-24 12:25 | 50.88092 | 17.27307 | 9709 ft | 305 kts | 114° |
| 2026-04-24 12:25 | 50.87174 | 17.30238 | 9596 ft | 289 kts | 113° |
| 2026-04-24 12:25 | 50.86617 | 17.33121 | 9465 ft | 271 kts | 89° |
| 2026-04-24 12:26 | 50.86869 | 17.35967 | 9327 ft | 254 kts | 64° |
| 2026-04-24 12:26 | 50.87784 | 17.38285 | 8941 ft | 249 kts | 41° |
| 2026-04-24 12:26 | 50.89176 | 17.39865 | 8520 ft | 246 kts | 20° |
| 2026-04-24 12:26 | 50.90816 | 17.40558 | 8137 ft | 244 kts | 1° |
| 2026-04-24 12:27 | 50.92484 | 17.40309 | 7757 ft | 239 kts | 342° |
| 2026-04-24 12:27 | 50.93961 | 17.39201 | 7329 ft | 233 kts | 323° |
| 2026-04-24 12:27 | 50.95088 | 17.37400 | 6935 ft | 228 kts | 304° |
| 2026-04-24 12:27 | 50.95826 | 17.35210 | 6607 ft | 222 kts | 296° |
| 2026-04-24 12:28 | 50.96510 | 17.33028 | 6230 ft | 219 kts | 296° |
| 2026-04-24 12:28 | 50.97180 | 17.30887 | 5894 ft | 214 kts | 297° |
| 2026-04-24 12:28 | 50.97827 | 17.28815 | 5629 ft | 206 kts | 297° |
| 2026-04-24 12:28 | 50.98446 | 17.26829 | 5394 ft | 194 kts | 297° |
| 2026-04-24 12:29 | 50.99014 | 17.25003 | 5248 ft | 175 kts | 297° |
| 2026-04-24 12:29 | 50.99536 | 17.23327 | 5067 ft | 166 kts | 297° |
| 2026-04-24 12:29 | 51.00031 | 17.21737 | 4868 ft | 161 kts | 297° |
| 2026-04-24 12:29 | 51.00520 | 17.20162 | 4657 ft | 157 kts | 297° |
| 2026-04-24 12:30 | 51.00996 | 17.18632 | 4449 ft | 153 kts | 297° |
| 2026-04-24 12:30 | 51.01465 | 17.17121 | 4243 ft | 150 kts | 297° |
| 2026-04-24 12:30 | 51.01921 | 17.15650 | 4045 ft | 147 kts | 297° |
| 2026-04-24 12:30 | 51.02360 | 17.14232 | 3852 ft | 138 kts | 297° |
| 2026-04-24 12:31 | 51.02771 | 17.12906 | 3677 ft | 133 kts | 297° |
| 2026-04-24 12:31 | 51.03178 | 17.11592 | 3497 ft | 133 kts | 297° |
| 2026-04-24 12:31 | 51.03585 | 17.10280 | 3317 ft | 132 kts | 297° |
| 2026-04-24 12:31 | 51.03988 | 17.08976 | 3141 ft | 132 kts | 297° |
| 2026-04-24 12:32 | 51.04390 | 17.07676 | 2958 ft | 132 kts | 296° |
| 2026-04-24 12:32 | 51.04792 | 17.06376 | 2784 ft | 130 kts | 297° |
| 2026-04-24 12:32 | 51.05190 | 17.05086 | 2605 ft | 130 kts | 297° |
| 2026-04-24 12:32 | 51.05587 | 17.03801 | 2434 ft | 129 kts | 297° |
| 2026-04-24 12:33 | 51.05982 | 17.02519 | 2252 ft | 129 kts | 296° |
| 2026-04-24 12:33 | 51.06371 | 17.01259 | 2079 ft | 128 kts | 297° |
| 2026-04-24 12:33 | 51.06762 | 16.99988 | 1907 ft | 128 kts | 297° |
| 2026-04-24 12:33 | 51.07153 | 16.98721 | 1729 ft | 127 kts | 297° |
| 2026-04-24 12:34 | 51.07544 | 16.97451 | 1539 ft | 128 kts | 297° |
| 2026-04-24 12:34 | 51.07937 | 16.96175 | 1364 ft | 129 kts | 297° |
| 2026-04-24 12:34 | 51.08329 | 16.94900 | 1177 ft | 128 kts | 296° |
| 2026-04-24 12:34 | 51.08718 | 16.93634 | 999 ft | 127 kts | 296° |
| 2026-04-24 12:35 | 51.08980 | 16.92783 | 870 ft | 127 kts | 295° |
| 2026-04-24 12:35 | 51.09498 | 16.91130 | 682 ft | 126 kts | 295° |
| 2026-04-24 12:35 | 51.09887 | 16.89877 | 506 ft | 126 kts | 294° |
| 2026-04-24 12:35 | 51.10271 | 16.88621 | 420 ft | 118 kts | 294° |
| 2026-04-24 12:36 | 51.10570 | 16.87595 | 399 ft | 81 kts | 294° |
| 2026-04-24 12:36 | 51.10689 | 16.87240 | 403 ft | 6 kts | 355° |
| 2026-04-24 12:36 | 51.10761 | 16.87280 | 403 ft | 14 kts | 20° |
| 2026-04-24 12:36 | 51.10862 | 16.87358 | 403 ft | 18 kts | 26° |
| 2026-04-24 12:37 | 51.10901 | 16.87388 | 403 ft | 0 kts | 26° |
| 2026-04-24 12:38 | 51.10914 | 16.87398 | 403 ft | 4 kts | 26° |
| 2026-04-24 12:38 | 51.10943 | 16.87430 | 403 ft | 6 kts | 51° |
| 2026-04-24 12:39 | 51.10863 | 16.87746 | 402 ft | 15 kts | 116° |
| 2026-04-24 12:39 | 51.10819 | 16.87891 | 402 ft | 14 kts | 116° |
| 2026-04-24 12:39 | 51.10785 | 16.88002 | 403 ft | 8 kts | 116° |
| 2026-04-24 12:40 | 51.10781 | 16.88035 | 401 ft | 1 kts | 56° |
| 2026-04-24 12:40 | 51.10793 | 16.88057 | 403 ft | 4 kts | 53° |
| 2026-04-24 12:40 | 51.10825 | 16.88088 | 403 ft | 7 kts | 24° |
| 2026-04-24 12:40 | 51.10837 | 16.88096 | 403 ft | 0 kts | 25° |